^^
Station Historical Data
Daily Summary for October 16, 2017 Units:  Both    English   Metric
« Previous Day
Next Day »
Daily Weekly Monthly Yearly Custom
  High: Low: Average:
Temperature: TemperatureF °F /  -17.8 °C 47.1 °F /  8.4 °C 70.3 °F /  21.3 °C
Dew Point: DewpointF °F /  -17.8 °C -20.6 °F /  -29.2 °C 6.6 °F /  -14.1 °C
Humidity: Humidity% 2% 9%
Wind Speed: WindSpeedMPHmph /  0km/h - 1.3mph /  2.1km/h
Wind Gust: WindSpeedGustMPHmph /  0km/h - -
Wind- - SW
Pressure: PressureIn in /  0 hPa 29.77 in /  1008 hPa -
Precipitation: 0.00 in /  0 mm    
Historical Graphs
 
 
Tabular Data for October 16, 2017
Time Temperature Dew Point Pressure Wind Wind Speed Wind Gust Humidity Rainfall Rate (Hourly) solar Conditions
TemperatureF °F /  -17.8 °C DewpointF °F /  -17.8 °C PressureInin /  0hPa Calm     Humidity% HourlyPrecipInin /  0mm SolarRadiationWatts/m^2 W/m2 Conditions
00:02 58.5 °F /  14.7 °C -8.7 °F /  -22.6 °C 29.86in /  1011.1hPa Calm   1.0mph /  1.6km/h 6% 0.00in /  0mm 0.0 W/m2
00:07 58.5 °F /  14.7 °C -8.7 °F /  -22.6 °C 29.86in /  1011.1hPa Calm     6% 0.00in /  0mm 0.0 W/m2
00:13 58.5 °F /  14.7 °C -8.7 °F /  -22.6 °C 29.86in /  1011.1hPa Calm     6% 0.00in /  0mm 0.0 W/m2
00:18 58.5 °F /  14.7 °C -5.4 °F /  -20.8 °C 29.86in /  1011.1hPa Calm     7% 0.00in /  0mm 0.0 W/m2
00:23 58.3 °F /  14.6 °C -5.6 °F /  -20.9 °C 29.85in /  1010.7hPa Calm     7% 0.00in /  0mm 0.0 W/m2
00:29 57.9 °F /  14.4 °C -5.8 °F /  -21 °C 29.85in /  1010.7hPa Calm     7% 0.00in /  0mm 0.0 W/m2
00:34 57.6 °F /  14.2 °C -6.2 °F /  -21.2 °C 29.86in /  1011.1hPa Calm     7% 0.00in /  0mm 0.0 W/m2
00:39 57.6 °F /  14.2 °C -6.2 °F /  -21.2 °C 29.85in /  1010.7hPa Calm     7% 0.00in /  0mm 0.0 W/m2
00:45 57.4 °F /  14.1 °C -9.4 °F /  -23 °C 29.85in /  1010.7hPa Calm     6% 0.00in /  0mm 0.0 W/m2
00:50 57.6 °F /  14.2 °C -9.2 °F /  -22.9 °C 29.85in /  1010.7hPa Calm     6% 0.00in /  0mm 0.0 W/m2
00:55 57.6 °F /  14.2 °C -9.2 °F /  -22.9 °C 29.85in /  1010.7hPa Calm     6% 0.00in /  0mm 0.0 W/m2
01:01 57.4 °F /  14.1 °C -9.4 °F /  -23 °C 29.85in /  1010.7hPa Calm     6% 0.00in /  0mm 0.0 W/m2
01:06 57.4 °F /  14.1 °C -9.4 °F /  -23 °C 29.85in /  1010.7hPa Calm     6% 0.00in /  0mm 0.0 W/m2
01:11 57.0 °F /  13.9 °C -9.8 °F /  -23.2 °C 29.85in /  1010.7hPa Calm   2.0mph /  3.2km/h 6% 0.00in /  0mm 0.0 W/m2
01:17 57.0 °F /  13.9 °C -9.8 °F /  -23.2 °C 29.85in /  1010.7hPa Calm     6% 0.00in /  0mm 0.0 W/m2
01:22 56.8 °F /  13.8 °C -9.8 °F /  -23.2 °C 29.85in /  1010.7hPa Calm   1.0mph /  1.6km/h 6% 0.00in /  0mm 0.0 W/m2
01:27 56.7 °F /  13.7 °C -9.9 °F /  -23.3 °C 29.85in /  1010.7hPa Calm     6% 0.00in /  0mm 0.0 W/m2
01:33 56.7 °F /  13.7 °C -6.9 °F /  -21.6 °C 29.84in /  1010.4hPa Calm     7% 0.00in /  0mm 0.0 W/m2
01:38 56.5 °F /  13.6 °C -6.9 °F /  -21.6 °C 29.83in /  1010hPa Calm     7% 0.00in /  0mm 0.0 W/m2
01:43 56.1 °F /  13.4 °C -7.2 °F /  -21.8 °C 29.83in /  1010hPa Calm     7% 0.00in /  0mm 0.0 W/m2
01:49 55.8 °F /  13.2 °C -7.4 °F /  -21.9 °C 29.83in /  1010hPa Calm     7% 0.00in /  0mm 0.0 W/m2
01:54 55.6 °F /  13.1 °C -7.6 °F /  -22 °C 29.83in /  1010hPa Calm     7% 0.00in /  0mm 0.0 W/m2
01:59 55.2 °F /  12.9 °C -5.1 °F /  -20.6 °C 29.83in /  1010hPa Calm     8% 0.00in /  0mm 0.0 W/m2
02:05 54.9 °F /  12.7 °C -5.4 °F /  -20.8 °C 29.83in /  1010hPa Calm     8% 0.00in /  0mm 0.0 W/m2
02:10 54.5 °F /  12.5 °C -5.6 °F /  -20.9 °C 29.83in /  1010hPa Calm     8% 0.00in /  0mm 0.0 W/m2
02:15 54.1 °F /  12.3 °C -3.5 °F /  -19.7 °C 29.83in /  1010hPa Calm     9% 0.00in /  0mm 0.0 W/m2
02:20 53.8 °F /  12.1 °C -3.8 °F /  -19.9 °C 29.83in /  1010hPa Calm     9% 0.00in /  0mm 0.0 W/m2
02:25 53.4 °F /  11.9 °C -4.0 °F /  -20 °C 29.83in /  1010hPa Calm     9% 0.00in /  0mm 0.0 W/m2
02:31 53.1 °F /  11.7 °C -4.4 °F /  -20.2 °C 29.83in /  1010hPa Calm     9% 0.00in /  0mm 0.0 W/m2
02:36 52.5 °F /  11.4 °C -4.7 °F /  -20.4 °C 29.83in /  1010hPa Calm     9% 0.00in /  0mm 0.0 W/m2
02:41 52.3 °F /  11.3 °C -2.7 °F /  -19.3 °C 29.83in /  1010hPa Calm     10% 0.00in /  0mm 0.0 W/m2
02:47 52.2 °F /  11.2 °C -5.1 °F /  -20.6 °C 29.83in /  1010hPa Calm   1.0mph /  1.6km/h 9% 0.00in /  0mm 0.0 W/m2
02:52 52.2 °F /  11.2 °C -5.1 °F /  -20.6 °C 29.82in /  1009.7hPa Calm     9% 0.00in /  0mm 0.0 W/m2
02:57 52.0 °F /  11.1 °C -7.6 °F /  -22 °C 29.82in /  1009.7hPa Calm     8% 0.00in /  0mm 0.0 W/m2
03:03 52.2 °F /  11.2 °C -7.4 °F /  -21.9 °C 29.82in /  1009.7hPa Calm     8% 0.00in /  0mm 0.0 W/m2
03:08 52.2 °F /  11.2 °C -5.1 °F /  -20.6 °C 29.82in /  1009.7hPa Calm     9% 0.00in /  0mm 0.0 W/m2
03:13 52.0 °F /  11.1 °C -7.6 °F /  -22 °C 29.82in /  1009.7hPa Calm     8% 0.00in /  0mm 0.0 W/m2
03:19 52.0 °F /  11.1 °C -7.6 °F /  -22 °C 29.82in /  1009.7hPa Calm   1.0mph /  1.6km/h 8% 0.00in /  0mm 0.0 W/m2
03:25 51.8 °F /  11 °C -7.8 °F /  -22.1 °C 29.82in /  1009.7hPa Calm     8% 0.00in /  0mm 0.0 W/m2
03:30 51.8 °F /  11 °C -7.8 °F /  -22.1 °C 29.82in /  1009.7hPa Calm     8% 0.00in /  0mm 0.0 W/m2
03:36 51.6 °F /  10.9 °C -7.8 °F /  -22.1 °C 29.81in /  1009.4hPa Calm     8% 0.00in /  0mm 0.0 W/m2
03:41 51.4 °F /  10.8 °C -8.0 °F /  -22.2 °C 29.81in /  1009.4hPa Calm     8% 0.00in /  0mm 0.0 W/m2
03:46 51.4 °F /  10.8 °C -8.0 °F /  -22.2 °C 29.81in /  1009.4hPa Calm     8% 0.00in /  0mm 0.0 W/m2
03:52 51.4 °F /  10.8 °C -8.0 °F /  -22.2 °C 29.81in /  1009.4hPa Calm   1.0mph /  1.6km/h 8% 0.00in /  0mm 0.0 W/m2
03:57 51.4 °F /  10.8 °C -8.0 °F /  -22.2 °C 29.81in /  1009.4hPa Calm     8% 0.00in /  0mm 0.0 W/m2
04:02 51.4 °F /  10.8 °C -8.0 °F /  -22.2 °C 29.81in /  1009.4hPa Calm   1.0mph /  1.6km/h 8% 0.00in /  0mm 0.0 W/m2
04:08 51.4 °F /  10.8 °C -5.6 °F /  -20.9 °C 29.81in /  1009.4hPa Calm     9% 0.00in /  0mm 0.0 W/m2
04:13 51.3 °F /  10.7 °C -5.6 °F /  -20.9 °C 29.80in /  1009hPa Calm     9% 0.00in /  0mm 0.0 W/m2
04:18 50.7 °F /  10.4 °C -6.2 °F /  -21.2 °C 29.80in /  1009hPa Calm     9% 0.00in /  0mm 0.0 W/m2
04:23 50.4 °F /  10.2 °C -4.2 °F /  -20.1 °C 29.81in /  1009.4hPa Calm     10% 0.00in /  0mm 0.0 W/m2
04:28 50.2 °F /  10.1 °C -6.5 °F /  -21.4 °C 29.81in /  1009.4hPa Calm     9% 0.00in /  0mm 0.0 W/m2
04:34 50.2 °F /  10.1 °C -8.9 °F /  -22.7 °C 29.81in /  1009.4hPa Calm     8% 0.00in /  0mm 0.0 W/m2
04:39 50.4 °F /  10.2 °C -8.9 °F /  -22.7 °C 29.82in /  1009.7hPa Calm     8% 0.00in /  0mm 0.0 W/m2
04:44 50.2 °F /  10.1 °C -6.5 °F /  -21.4 °C 29.82in /  1009.7hPa Calm     9% 0.00in /  0mm 0.0 W/m2
04:49 49.8 °F /  9.9 °C -4.5 °F /  -20.3 °C 29.83in /  1010hPa Calm     10% 0.00in /  0mm 0.0 W/m2
04:54 49.5 °F /  9.7 °C -4.9 °F /  -20.5 °C 29.83in /  1010hPa Calm     10% 0.00in /  0mm 0.0 W/m2
04:59 48.9 °F /  9.4 °C -5.3 °F /  -20.7 °C 29.83in /  1010hPa Calm     10% 0.00in /  0mm 0.0 W/m2
05:04 48.6 °F /  9.2 °C -3.6 °F /  -19.8 °C 29.83in /  1010hPa Calm     11% 0.00in /  0mm 0.0 W/m2
05:10 48.2 °F /  9 °C -2.0 °F /  -18.9 °C 29.84in /  1010.4hPa Calm     12% 0.00in /  0mm 0.0 W/m2
05:15 47.8 °F /  8.8 °C -2.4 °F /  -19.1 °C 29.84in /  1010.4hPa Calm     12% 0.00in /  0mm 0.0 W/m2
05:20 47.7 °F /  8.7 °C -2.6 °F /  -19.2 °C 29.85in /  1010.7hPa Calm     12% 0.00in /  0mm 0.0 W/m2
05:25 47.1 °F /  8.4 °C -4.7 °F /  -20.4 °C 29.85in /  1010.7hPa Calm     11% 0.00in /  0mm 0.0 W/m2
05:30 47.1 °F /  8.4 °C -2.9 °F /  -19.4 °C 29.85in /  1010.7hPa Calm     12% 0.00in /  0mm 0.0 W/m2
05:35 47.1 °F /  8.4 °C -2.9 °F /  -19.4 °C 29.85in /  1010.7hPa Calm   1.0mph /  1.6km/h 12% 0.00in /  0mm 0.0 W/m2
05:41 47.5 °F /  8.6 °C -2.6 °F /  -19.2 °C 29.85in /  1010.7hPa Calm     12% 0.00in /  0mm 0.0 W/m2
05:46 47.5 °F /  8.6 °C -2.6 °F /  -19.2 °C 29.85in /  1010.7hPa Calm     12% 0.00in /  0mm 0.0 W/m2
05:51 47.5 °F /  8.6 °C -4.5 °F /  -20.3 °C 29.85in /  1010.7hPa Calm     11% 0.00in /  0mm 0.0 W/m2
05:56 47.5 °F /  8.6 °C -2.6 °F /  -19.2 °C 29.86in /  1011.1hPa Calm     12% 0.00in /  0mm 0.0 W/m2
06:01 47.5 °F /  8.6 °C -2.6 °F /  -19.2 °C 29.85in /  1010.7hPa Calm     12% 0.00in /  0mm 0.0 W/m2
06:06 47.7 °F /  8.7 °C -4.4 °F /  -20.2 °C 29.86in /  1011.1hPa Calm   1.0mph /  1.6km/h 11% 0.00in /  0mm 0.0 W/m2
06:12 47.8 °F /  8.8 °C -6.2 °F /  -21.2 °C 29.86in /  1011.1hPa East 0.9mph /  1.4km/h 5.0mph /  8km/h 10% 0.00in /  0mm 0.0 W/m2
06:17 48.4 °F /  9.1 °C -5.8 °F /  -21 °C 29.86in /  1011.1hPa Calm     10% 0.00in /  0mm 0.0 W/m2
06:22 48.6 °F /  9.2 °C -7.8 °F /  -22.1 °C 29.86in /  1011.1hPa Calm   1.0mph /  1.6km/h 9% 0.00in /  0mm 5.0 W/m2
06:27 48.7 °F /  9.3 °C -7.6 °F /  -22 °C 29.87in /  1011.4hPa Calm     9% 0.00in /  0mm 5.0 W/m2
06:32 48.7 °F /  9.3 °C -7.6 °F /  -22 °C 29.87in /  1011.4hPa Calm     9% 0.00in /  0mm 7.0 W/m2
06:37 49.1 °F /  9.5 °C -5.3 °F /  -20.7 °C 29.87in /  1011.4hPa Calm     10% 0.00in /  0mm 9.0 W/m2
06:42 49.3 °F /  9.6 °C -3.1 °F /  -19.5 °C 29.88in /  1011.7hPa Calm     11% 0.00in /  0mm 11.0 W/m2
06:47 49.5 °F /  9.7 °C -2.9 °F /  -19.4 °C 29.88in /  1011.7hPa Calm     11% 0.00in /  0mm 12.0 W/m2
06:52 49.5 °F /  9.7 °C -2.9 °F /  -19.4 °C 29.88in /  1011.7hPa Calm     11% 0.00in /  0mm 14.0 W/m2
06:58 50.2 °F /  10.1 °C -0.6 °F /  -18.1 °C 29.88in /  1011.7hPa Calm     12% 0.00in /  0mm 14.0 W/m2
07:03 50.7 °F /  10.4 °C 1.6 °F /  -16.9 °C 29.88in /  1011.7hPa SW 0.9mph /  1.4km/h 5.0mph /  8km/h 13% 0.00in /  0mm 16.0 W/m2
07:08 52.5 °F /  11.4 °C 1.4 °F /  -17 °C 29.89in /  1012.1hPa Calm   7.0mph /  11.3km/h 12% 0.00in /  0mm 18.0 W/m2
07:13 55.2 °F /  12.9 °C 1.6 °F /  -16.9 °C 29.89in /  1012.1hPa Calm   6.0mph /  9.7km/h 11% 0.00in /  0mm 18.0 W/m2
07:18 57.4 °F /  14.1 °C 1.2 °F /  -17.1 °C 29.89in /  1012.1hPa South 2.9mph /  4.7km/h 4.0mph /  6.4km/h 10% 0.00in /  0mm 26.0 W/m2
07:23 59.0 °F /  15 °C 0.1 °F /  -17.7 °C 29.89in /  1012.1hPa WSW 2.9mph /  4.7km/h 5.0mph /  8km/h 9% 0.00in /  0mm 21.0 W/m2
07:28 60.6 °F /  15.9 °C 1.4 °F /  -17 °C 29.89in /  1012.1hPa South 0.9mph /  1.4km/h 6.0mph /  9.7km/h 9% 0.00in /  0mm 28.0 W/m2
07:33 61.7 °F /  16.5 °C 2.3 °F /  -16.5 °C 29.89in /  1012.1hPa Calm   5.0mph /  8km/h 9% 0.00in /  0mm 21.0 W/m2
07:38 62.4 °F /  16.9 °C 0.3 °F /  -17.6 °C 29.89in /  1012.1hPa SSW 4.9mph /  7.9km/h 5.0mph /  8km/h 8% 0.00in /  0mm 23.0 W/m2
07:43 63.3 °F /  17.4 °C 1.0 °F /  -17.2 °C 29.89in /  1012.1hPa SW 2.9mph /  4.7km/h 3.0mph /  4.8km/h 8% 0.00in /  0mm 23.0 W/m2
07:49 64.0 °F /  17.8 °C -1.3 °F /  -18.5 °C 29.89in /  1012.1hPa Calm   7.0mph /  11.3km/h 7% 0.00in /  0mm 26.0 W/m2
07:55 64.8 °F /  18.2 °C 2.1 °F /  -16.6 °C 29.89in /  1012.1hPa SSW 0.9mph /  1.4km/h 7.0mph /  11.3km/h 8% 0.00in /  0mm 25.0 W/m2
08:00 65.7 °F /  18.7 °C -0.2 °F /  -17.9 °C 29.89in /  1012.1hPa Calm   7.0mph /  11.3km/h 7% 0.00in /  0mm 26.0 W/m2
08:05 66.4 °F /  19.1 °C 0.3 °F /  -17.6 °C 29.89in /  1012.1hPa South 4.0mph /  6.4km/h 7.0mph /  11.3km/h 7% 0.00in /  0mm 26.0 W/m2
08:10 66.9 °F /  19.4 °C -2.6 °F /  -19.2 °C 29.89in /  1012.1hPa Calm   7.0mph /  11.3km/h 6% 0.00in /  0mm 26.0 W/m2
08:20 67.8 °F /  19.9 °C -1.8 °F /  -18.8 °C 29.89in /  1012.1hPa Calm   4.0mph /  6.4km/h 6% 0.00in /  0mm 33.0 W/m2
08:25 68.4 °F /  20.2 °C -1.5 °F /  -18.6 °C 29.89in /  1012.1hPa SSE 2.0mph /  3.2km/h 7.0mph /  11.3km/h 6% 0.00in /  0mm 497.0 W/m2
08:30 68.5 °F /  20.3 °C -5.1 °F /  -20.6 °C 29.89in /  1012.1hPa South 2.9mph /  4.7km/h 5.0mph /  8km/h 5% 0.00in /  0mm 517.0 W/m2
08:35 69.3 °F /  20.7 °C -9.2 °F /  -22.9 °C 29.89in /  1012.1hPa Calm   7.0mph /  11.3km/h 4% 0.00in /  0mm 536.0 W/m2
08:41 70.0 °F /  21.1 °C -8.7 °F /  -22.6 °C 29.89in /  1012.1hPa Calm   2.0mph /  3.2km/h 4% 0.00in /  0mm 555.0 W/m2
08:46 70.9 °F /  21.6 °C -8.1 °F /  -22.3 °C 29.89in /  1012.1hPa Calm   7.0mph /  11.3km/h 4% 0.00in /  0mm 575.0 W/m2
08:51 71.4 °F /  21.9 °C -3.1 °F /  -19.5 °C 29.89in /  1012.1hPa SW 0.9mph /  1.4km/h 6.0mph /  9.7km/h 5% 0.00in /  0mm 592.0 W/m2
08:56 72.1 °F /  22.3 °C -7.2 °F /  -21.8 °C 29.89in /  1012.1hPa SSW 2.0mph /  3.2km/h 6.0mph /  9.7km/h 4% 0.00in /  0mm 612.0 W/m2
09:01 72.9 °F /  22.7 °C -20.6 °F /  -29.2 °C 29.89in /  1012.1hPa South 4.0mph /  6.4km/h 9.0mph /  14.5km/h 2% 0.00in /  0mm 629.0 W/m2
09:06 73.2 °F /  22.9 °C -12.3 °F /  -24.6 °C 29.89in /  1012.1hPa WSW 0.9mph /  1.4km/h 5.0mph /  8km/h 3% 0.00in /  0mm 649.0 W/m2
09:11 73.8 °F /  23.2 °C -6.2 °F /  -21.2 °C 29.89in /  1012.1hPa SSE 0.9mph /  1.4km/h 8.0mph /  12.9km/h 4% 0.00in /  0mm 666.0 W/m2
09:16 74.1 °F /  23.4 °C -11.7 °F /  -24.3 °C 29.89in /  1012.1hPa Calm   8.0mph /  12.9km/h 3% 0.00in /  0mm 682.0 W/m2
09:22 74.5 °F /  23.6 °C -11.4 °F /  -24.1 °C 29.90in /  1012.4hPa Calm   7.0mph /  11.3km/h 3% 0.00in /  0mm 701.0 W/m2
09:27 74.8 °F /  23.8 °C -5.3 °F /  -20.7 °C 29.89in /  1012.1hPa Calm   7.0mph /  11.3km/h 4% 0.00in /  0mm 717.0 W/m2
09:32 75.4 °F /  24.1 °C -4.9 °F /  -20.5 °C 29.89in /  1012.1hPa Calm   1.0mph /  1.6km/h 4% 0.00in /  0mm 724.0 W/m2
09:37 76.1 °F /  24.5 °C -4.5 °F /  -20.3 °C 29.89in /  1012.1hPa East 6.0mph /  9.7km/h 6.0mph /  9.7km/h 4% 0.00in /  0mm 751.0 W/m2
09:42 76.6 °F /  24.8 °C -4.0 °F /  -20 °C 29.89in /  1012.1hPa ESE 2.9mph /  4.7km/h 8.0mph /  12.9km/h 4% 0.00in /  0mm 765.0 W/m2
09:47 77.2 °F /  25.1 °C 1.0 °F /  -17.2 °C 29.89in /  1012.1hPa SSE 2.9mph /  4.7km/h 4.0mph /  6.4km/h 5% 0.00in /  0mm 780.0 W/m2
09:52 77.7 °F /  25.4 °C -3.3 °F /  -19.6 °C 29.89in /  1012.1hPa Calm   2.0mph /  3.2km/h 4% 0.00in /  0mm 795.0 W/m2
09:57 78.4 °F /  25.8 °C 1.9 °F /  -16.7 °C 29.88in /  1011.7hPa SSE 0.9mph /  1.4km/h 8.0mph /  12.9km/h 5% 0.00in /  0mm 809.0 W/m2
10:03 79.0 °F /  26.1 °C -2.6 °F /  -19.2 °C 29.88in /  1011.7hPa Calm   1.0mph /  1.6km/h 4% 0.00in /  0mm 819.0 W/m2
10:08 79.2 °F /  26.2 °C 2.5 °F /  -16.4 °C 29.88in /  1011.7hPa Calm   4.0mph /  6.4km/h 5% 0.00in /  0mm 838.0 W/m2
10:13 79.3 °F /  26.3 °C 2.5 °F /  -16.4 °C 29.88in /  1011.7hPa Calm   1.0mph /  1.6km/h 5% 0.00in /  0mm 847.0 W/m2
10:18 79.5 °F /  26.4 °C 2.7 °F /  -16.3 °C 29.88in /  1011.7hPa West 2.0mph /  3.2km/h 6.0mph /  9.7km/h 5% 0.00in /  0mm 865.0 W/m2
10:24 79.9 °F /  26.6 °C 6.8 °F /  -14 °C 29.88in /  1011.7hPa Calm   3.0mph /  4.8km/h 6% 0.00in /  0mm 881.0 W/m2
10:29 80.2 °F /  26.8 °C 7.2 °F /  -13.8 °C 29.88in /  1011.7hPa East 2.0mph /  3.2km/h 5.0mph /  8km/h 6% 0.00in /  0mm 893.0 W/m2
10:34 81.0 °F /  27.2 °C 7.7 °F /  -13.5 °C 29.88in /  1011.7hPa SW 2.9mph /  4.7km/h 8.0mph /  12.9km/h 6% 0.00in /  0mm 902.0 W/m2
10:39 81.1 °F /  27.3 °C 7.9 °F /  -13.4 °C 29.88in /  1011.7hPa SSW 0.9mph /  1.4km/h 3.0mph /  4.8km/h 6% 0.00in /  0mm 916.0 W/m2
10:44 81.1 °F /  27.3 °C 11.3 °F /  -11.5 °C 29.88in /  1011.7hPa SSW 4.0mph /  6.4km/h 7.0mph /  11.3km/h 7% 0.00in /  0mm 925.0 W/m2
10:49 81.1 °F /  27.3 °C 7.9 °F /  -13.4 °C 29.87in /  1011.4hPa NW 2.9mph /  4.7km/h 4.0mph /  6.4km/h 6% 0.00in /  0mm 933.0 W/m2
10:54 81.5 °F /  27.5 °C 11.5 °F /  -11.4 °C 29.88in /  1011.7hPa Calm   5.0mph /  8km/h 7% 0.00in /  0mm 946.0 W/m2
11:00 81.9 °F /  27.7 °C 8.2 °F /  -13.2 °C 29.87in /  1011.4hPa Calm   1.0mph /  1.6km/h 6% 0.00in /  0mm 954.0 W/m2
11:05 82.0 °F /  27.8 °C 11.8 °F /  -11.2 °C 29.87in /  1011.4hPa SW 2.9mph /  4.7km/h 8.0mph /  12.9km/h 7% 0.00in /  0mm 963.0 W/m2
11:10 82.0 °F /  27.8 °C 11.8 °F /  -11.2 °C 29.87in /  1011.4hPa Calm   5.0mph /  8km/h 7% 0.00in /  0mm 974.0 W/m2
11:15 82.0 °F /  27.8 °C 11.8 °F /  -11.2 °C 29.87in /  1011.4hPa Calm   1.0mph /  1.6km/h 7% 0.00in /  0mm 977.0 W/m2
11:20 82.6 °F /  28.1 °C 12.2 °F /  -11 °C 29.86in /  1011.1hPa West 2.0mph /  3.2km/h 7.0mph /  11.3km/h 7% 0.00in /  0mm 990.0 W/m2
11:25 82.8 °F /  28.2 °C 12.4 °F /  -10.9 °C 29.86in /  1011.1hPa Calm   3.0mph /  4.8km/h 7% 0.00in /  0mm 995.0 W/m2
11:30 82.9 °F /  28.3 °C 9.1 °F /  -12.7 °C 29.86in /  1011.1hPa Calm   5.0mph /  8km/h 6% 0.00in /  0mm 1002.0 W/m2
11:35 83.1 °F /  28.4 °C 9.1 °F /  -12.7 °C 29.86in /  1011.1hPa WNW 0.9mph /  1.4km/h 5.0mph /  8km/h 6% 0.00in /  0mm 1007.0 W/m2
11:40 83.1 °F /  28.4 °C 9.1 °F /  -12.7 °C 29.85in /  1010.7hPa SW 0.9mph /  1.4km/h 7.0mph /  11.3km/h 6% 0.00in /  0mm 1014.0 W/m2
11:45 82.9 °F /  28.3 °C 9.1 °F /  -12.7 °C 29.85in /  1010.7hPa WNW 2.0mph /  3.2km/h 10.0mph /  16.1km/h 6% 0.00in /  0mm 1016.0 W/m2
11:50 82.8 °F /  28.2 °C 9.0 °F /  -12.8 °C 29.85in /  1010.7hPa Calm   4.0mph /  6.4km/h 6% 0.00in /  0mm 1025.0 W/m2
11:56 83.3 °F /  28.5 °C 9.3 °F /  -12.6 °C 29.85in /  1010.7hPa Calm   3.0mph /  4.8km/h 6% 0.00in /  0mm 1027.0 W/m2
12:01 84.0 °F /  28.9 °C 9.9 °F /  -12.3 °C 29.85in /  1010.7hPa WSW 4.0mph /  6.4km/h 6.0mph /  9.7km/h 6% 0.00in /  0mm 1030.0 W/m2
12:06 84.4 °F /  29.1 °C 6.1 °F /  -14.4 °C 29.84in /  1010.4hPa Calm   5.0mph /  8km/h 5% 0.00in /  0mm 1034.0 W/m2
12:11 84.7 °F /  29.3 °C 6.3 °F /  -14.3 °C 29.84in /  1010.4hPa SW 2.9mph /  4.7km/h 7.0mph /  11.3km/h 5% 0.00in /  0mm 1034.0 W/m2
12:16 85.1 °F /  29.5 °C 6.6 °F /  -14.1 °C 29.84in /  1010.4hPa West 6.9mph /  11.1km/h 7.0mph /  11.3km/h 5% 0.00in /  0mm 1039.0 W/m2
12:21 85.6 °F /  29.8 °C 10.9 °F /  -11.7 °C 29.84in /  1010.4hPa SW 0.9mph /  1.4km/h 2.0mph /  3.2km/h 6% 0.00in /  0mm 1044.0 W/m2
12:26 85.8 °F /  29.9 °C 7.2 °F /  -13.8 °C 29.84in /  1010.4hPa Calm   5.0mph /  8km/h 5% 0.00in /  0mm 1042.0 W/m2
12:31 85.8 °F /  29.9 °C 7.2 °F /  -13.8 °C 29.83in /  1010hPa SE 0.9mph /  1.4km/h 4.0mph /  6.4km/h 5% 0.00in /  0mm 1041.0 W/m2
12:36 86.2 °F /  30.1 °C 7.3 °F /  -13.7 °C 29.83in /  1010hPa South 4.0mph /  6.4km/h 8.0mph /  12.9km/h 5% 0.00in /  0mm 1041.0 W/m2
12:42 85.8 °F /  29.9 °C 7.2 °F /  -13.8 °C 29.83in /  1010hPa Calm   6.0mph /  9.7km/h 5% 0.00in /  0mm 1041.0 W/m2
12:47 85.5 °F /  29.7 °C 6.8 °F /  -14 °C 29.83in /  1010hPa Calm   6.0mph /  9.7km/h 5% 0.00in /  0mm 1037.0 W/m2
12:52 85.8 °F /  29.9 °C 7.2 °F /  -13.8 °C 29.83in /  1010hPa Calm   7.0mph /  11.3km/h 5% 0.00in /  0mm 1037.0 W/m2
12:57 86.7 °F /  30.4 °C 7.7 °F /  -13.5 °C 29.83in /  1010hPa West 2.9mph /  4.7km/h 5.0mph /  8km/h 5% 0.00in /  0mm 1039.0 W/m2
13:02 87.6 °F /  30.9 °C 8.4 °F /  -13.1 °C 29.83in /  1010hPa NNW 4.9mph /  7.9km/h 8.0mph /  12.9km/h 5% 0.00in /  0mm 1032.0 W/m2
13:07 88.0 °F /  31.1 °C 3.7 °F /  -15.7 °C 29.83in /  1010hPa SW 2.0mph /  3.2km/h 9.0mph /  14.5km/h 4% 0.00in /  0mm 1030.0 W/m2
13:12 87.4 °F /  30.8 °C 8.2 °F /  -13.2 °C 29.82in /  1009.7hPa West 6.9mph /  11.1km/h 10.0mph /  16.1km/h 5% 0.00in /  0mm 1025.0 W/m2
13:17 87.3 °F /  30.7 °C 3.2 °F /  -16 °C 29.82in /  1009.7hPa North 2.0mph /  3.2km/h 4.0mph /  6.4km/h 4% 0.00in /  0mm 1018.0 W/m2
13:23 87.4 °F /  30.8 °C 8.2 °F /  -13.2 °C 29.82in /  1009.7hPa WNW 8.1mph /  13km/h 10.0mph /  16.1km/h 5% 0.00in /  0mm 1013.0 W/m2
13:29 87.6 °F /  30.9 °C 8.4 °F /  -13.1 °C 29.81in /  1009.4hPa West 0.9mph /  1.4km/h 4.0mph /  6.4km/h 5% 0.00in /  0mm 1007.0 W/m2
13:34 88.2 °F /  31.2 °C 8.8 °F /  -12.9 °C 29.81in /  1009.4hPa NNW 0.9mph /  1.4km/h 1.0mph /  1.6km/h 5% 0.00in /  0mm 998.0 W/m2
13:39 88.5 °F /  31.4 °C 9.0 °F /  -12.8 °C 29.81in /  1009.4hPa WSW 4.9mph /  7.9km/h 12.0mph /  19.3km/h 5% 0.00in /  0mm 991.0 W/m2
13:44 88.9 °F /  31.6 °C 9.3 °F /  -12.6 °C 29.81in /  1009.4hPa WNW 4.9mph /  7.9km/h 9.0mph /  14.5km/h 5% 0.00in /  0mm 988.0 W/m2
13:49 88.5 °F /  31.4 °C 9.0 °F /  -12.8 °C 29.80in /  1009hPa SW 0.9mph /  1.4km/h 3.0mph /  4.8km/h 5% 0.00in /  0mm 939.0 W/m2
13:54 88.0 °F /  31.1 °C 8.6 °F /  -13 °C 29.80in /  1009hPa Calm   9.0mph /  14.5km/h 5% 0.00in /  0mm 967.0 W/m2
13:59 88.2 °F /  31.2 °C 8.8 °F /  -12.9 °C 29.80in /  1009hPa SW 0.9mph /  1.4km/h 7.0mph /  11.3km/h 5% 0.00in /  0mm 954.0 W/m2
14:04 88.0 °F /  31.1 °C 8.6 °F /  -13 °C 29.80in /  1009hPa West 2.9mph /  4.7km/h 15.0mph /  24.1km/h 5% 0.00in /  0mm 947.0 W/m2
14:09 87.6 °F /  30.9 °C 8.4 °F /  -13.1 °C 29.80in /  1009hPa SW 2.9mph /  4.7km/h 6.0mph /  9.7km/h 5% 0.00in /  0mm 935.0 W/m2
14:15 88.0 °F /  31.1 °C 12.7 °F /  -10.7 °C 29.80in /  1009hPa West 8.9mph /  14.3km/h 16.0mph /  25.7km/h 6% 0.00in /  0mm 923.0 W/m2
14:21 87.4 °F /  30.8 °C 12.4 °F /  -10.9 °C 29.80in /  1009hPa Calm   10.0mph /  16.1km/h 6% 0.00in /  0mm 912.0 W/m2
14:26 87.4 °F /  30.8 °C 12.4 °F /  -10.9 °C 29.80in /  1009hPa WSW 10.1mph /  16.3km/h 12.0mph /  19.3km/h 6% 0.00in /  0mm 904.0 W/m2
14:31 87.3 °F /  30.7 °C 12.2 °F /  -11 °C 29.79in /  1008.7hPa SSW 4.9mph /  7.9km/h 9.0mph /  14.5km/h 6% 0.00in /  0mm 895.0 W/m2
14:36 87.4 °F /  30.8 °C 15.8 °F /  -9 °C 29.79in /  1008.7hPa SW 4.0mph /  6.4km/h 6.0mph /  9.7km/h 7% 0.00in /  0mm 879.0 W/m2
14:41 87.6 °F /  30.9 °C 16.0 °F /  -8.9 °C 29.79in /  1008.7hPa SW 6.9mph /  11.1km/h 9.0mph /  14.5km/h 7% 0.00in /  0mm 868.0 W/m2
14:46 87.3 °F /  30.7 °C 15.6 °F /  -9.1 °C 29.79in /  1008.7hPa WNW 0.9mph /  1.4km/h 8.0mph /  12.9km/h 7% 0.00in /  0mm 856.0 W/m2
14:51 87.4 °F /  30.8 °C 15.8 °F /  -9 °C 29.79in /  1008.7hPa Calm   7.0mph /  11.3km/h 7% 0.00in /  0mm 842.0 W/m2
14:56 88.0 °F /  31.1 °C 12.7 °F /  -10.7 °C 29.78in /  1008.4hPa South 2.9mph /  4.7km/h 5.0mph /  8km/h 6% 0.00in /  0mm 831.0 W/m2
15:02 88.5 °F /  31.4 °C 13.1 °F /  -10.5 °C 29.78in /  1008.4hPa WSW 2.9mph /  4.7km/h 6.0mph /  9.7km/h 6% 0.00in /  0mm 817.0 W/m2
15:08 88.3 °F /  31.3 °C 12.9 °F /  -10.6 °C 29.78in /  1008.4hPa West 2.9mph /  4.7km/h 9.0mph /  14.5km/h 6% 0.00in /  0mm 800.0 W/m2
15:13 88.2 °F /  31.2 °C 16.3 °F /  -8.7 °C 29.78in /  1008.4hPa SW 2.0mph /  3.2km/h 9.0mph /  14.5km/h 7% 0.00in /  0mm 782.0 W/m2
15:18 88.2 °F /  31.2 °C 16.3 °F /  -8.7 °C 29.78in /  1008.4hPa Calm   8.0mph /  12.9km/h 7% 0.00in /  0mm 770.0 W/m2
15:23 88.9 °F /  31.6 °C 16.9 °F /  -8.4 °C 29.78in /  1008.4hPa WNW 2.9mph /  4.7km/h 5.0mph /  8km/h 7% 0.00in /  0mm 752.0 W/m2
15:28 88.9 °F /  31.6 °C 13.3 °F /  -10.4 °C 29.78in /  1008.4hPa SSW 6.9mph /  11.1km/h 8.0mph /  12.9km/h 6% 0.00in /  0mm 738.0 W/m2
15:33 88.2 °F /  31.2 °C 16.3 °F /  -8.7 °C 29.78in /  1008.4hPa SW 2.9mph /  4.7km/h 10.0mph /  16.1km/h 7% 0.00in /  0mm 724.0 W/m2
15:38 87.6 °F /  30.9 °C 16.0 °F /  -8.9 °C 29.78in /  1008.4hPa Calm   2.0mph /  3.2km/h 7% 0.00in /  0mm 708.0 W/m2
15:44 87.6 °F /  30.9 °C 16.0 °F /  -8.9 °C 29.78in /  1008.4hPa WSW 2.9mph /  4.7km/h 9.0mph /  14.5km/h 7% 0.00in /  0mm 693.0 W/m2
15:49 87.6 °F /  30.9 °C 12.4 °F /  -10.9 °C 29.77in /  1008hPa Calm   8.0mph /  12.9km/h 6% 0.00in /  0mm 673.0 W/m2
15:54 88.2 °F /  31.2 °C 16.3 °F /  -8.7 °C 29.78in /  1008.4hPa WSW 4.0mph /  6.4km/h 16.0mph /  25.7km/h 7% 0.00in /  0mm 657.0 W/m2
15:59 88.0 °F /  31.1 °C 12.7 °F /  -10.7 °C 29.78in /  1008.4hPa West 6.0mph /  9.7km/h 8.0mph /  12.9km/h 6% 0.00in /  0mm 638.0 W/m2
16:04 88.2 °F /  31.2 °C 16.3 °F /  -8.7 °C 29.78in /  1008.4hPa Calm   3.0mph /  4.8km/h 7% 0.00in /  0mm 622.0 W/m2
16:09 88.7 °F /  31.5 °C 16.7 °F /  -8.5 °C 29.77in /  1008hPa West 0.9mph /  1.4km/h 8.0mph /  12.9km/h 7% 0.00in /  0mm 603.0 W/m2
16:14 88.7 °F /  31.5 °C 16.7 °F /  -8.5 °C 29.77in /  1008hPa West 4.9mph /  7.9km/h 9.0mph /  14.5km/h 7% 0.00in /  0mm 584.0 W/m2
16:19 88.9 °F /  31.6 °C 16.9 °F /  -8.4 °C 29.77in /  1008hPa WSW 2.9mph /  4.7km/h 8.0mph /  12.9km/h 7% 0.00in /  0mm 564.0 W/m2
16:24 88.5 °F /  31.4 °C 16.7 °F /  -8.5 °C 29.78in /  1008.4hPa SW 2.0mph /  3.2km/h 8.0mph /  12.9km/h 7% 0.00in /  0mm 547.0 W/m2
16:30 88.3 °F /  31.3 °C 16.5 °F /  -8.6 °C 29.77in /  1008hPa SW 4.9mph /  7.9km/h 5.0mph /  8km/h 7% 0.00in /  0mm 527.0 W/m2
16:36 88.2 °F /  31.2 °C 16.3 °F /  -8.7 °C 29.77in /  1008hPa West 4.9mph /  7.9km/h 8.0mph /  12.9km/h 7% 0.00in /  0mm 504.0 W/m2
16:41 88.0 °F /  31.1 °C 12.7 °F /  -10.7 °C 29.77in /  1008hPa West 6.0mph /  9.7km/h 7.0mph /  11.3km/h 6% 0.00in /  0mm 485.0 W/m2
16:46 87.6 °F /  30.9 °C 16.0 °F /  -8.9 °C 29.78in /  1008.4hPa WNW 2.0mph /  3.2km/h 10.0mph /  16.1km/h 7% 0.00in /  0mm 464.0 W/m2
16:51 88.0 °F /  31.1 °C 16.2 °F /  -8.8 °C 29.78in /  1008.4hPa WSW 2.0mph /  3.2km/h 5.0mph /  8km/h 7% 0.00in /  0mm 445.0 W/m2
16:56 88.0 °F /  31.1 °C 16.2 °F /  -8.8 °C 29.78in /  1008.4hPa West 6.0mph /  9.7km/h 13.0mph /  20.9km/h 7% 0.00in /  0mm 427.0 W/m2
17:01 87.6 °F /  30.9 °C 16.0 °F /  -8.9 °C 29.78in /  1008.4hPa WSW 2.9mph /  4.7km/h 6.0mph /  9.7km/h 7% 0.00in /  0mm 406.0 W/m2
17:06 87.4 °F /  30.8 °C 15.8 °F /  -9 °C 29.78in /  1008.4hPa Calm   8.0mph /  12.9km/h 7% 0.00in /  0mm 385.0 W/m2
17:11 87.1 °F /  30.6 °C 15.6 °F /  -9.1 °C 29.78in /  1008.4hPa West 4.0mph /  6.4km/h 6.0mph /  9.7km/h 7% 0.00in /  0mm 366.0 W/m2
17:17 86.9 °F /  30.5 °C 18.5 °F /  -7.5 °C 29.78in /  1008.4hPa WSW 4.9mph /  7.9km/h 9.0mph /  14.5km/h 8% 0.00in /  0mm 345.0 W/m2
17:23 86.7 °F /  30.4 °C 15.3 °F /  -9.3 °C 29.78in /  1008.4hPa WSW 6.9mph /  11.1km/h 11.0mph /  17.7km/h 7% 0.00in /  0mm 323.0 W/m2
17:28 86.4 °F /  30.2 °C 18.1 °F /  -7.7 °C 29.78in /  1008.4hPa WNW 4.9mph /  7.9km/h 9.0mph /  14.5km/h 8% 0.00in /  0mm 301.0 W/m2
17:33 86.2 °F /  30.1 °C 18.0 °F /  -7.8 °C 29.78in /  1008.4hPa SSW 2.0mph /  3.2km/h 7.0mph /  11.3km/h 8% 0.00in /  0mm 276.0 W/m2
17:38 85.6 °F /  29.8 °C 17.6 °F /  -8 °C 29.79in /  1008.7hPa West 2.9mph /  4.7km/h 12.0mph /  19.3km/h 8% 0.00in /  0mm 260.0 W/m2
17:43 85.5 °F /  29.7 °C 17.4 °F /  -8.1 °C 29.79in /  1008.7hPa SSW 6.0mph /  9.7km/h 7.0mph /  11.3km/h 8% 0.00in /  0mm 234.0 W/m2
17:48 84.9 °F /  29.4 °C 17.1 °F /  -8.3 °C 29.79in /  1008.7hPa SSE 2.9mph /  4.7km/h 9.0mph /  14.5km/h 8% 0.00in /  0mm 218.0 W/m2
17:53 84.4 °F /  29.1 °C 16.7 °F /  -8.5 °C 29.79in /  1008.7hPa West 6.0mph /  9.7km/h 12.0mph /  19.3km/h 8% 0.00in /  0mm 193.0 W/m2
17:59 83.7 °F /  28.7 °C 16.2 °F /  -8.8 °C 29.79in /  1008.7hPa West 0.9mph /  1.4km/h 5.0mph /  8km/h 8% 0.00in /  0mm 178.0 W/m2
18:04 83.7 °F /  28.7 °C 16.2 °F /  -8.8 °C 29.79in /  1008.7hPa SW 0.9mph /  1.4km/h 7.0mph /  11.3km/h 8% 0.00in /  0mm 153.0 W/m2
18:09 83.3 °F /  28.5 °C 15.8 °F /  -9 °C 29.80in /  1009hPa WNW 4.0mph /  6.4km/h 9.0mph /  14.5km/h 8% 0.00in /  0mm 128.0 W/m2
18:14 82.9 °F /  28.3 °C 15.6 °F /  -9.1 °C 29.80in /  1009hPa West 2.0mph /  3.2km/h 5.0mph /  8km/h 8% 0.00in /  0mm 105.0 W/m2
18:19 82.8 °F /  28.2 °C 15.4 °F /  -9.2 °C 29.80in /  1009hPa WSW 0.9mph /  1.4km/h 9.0mph /  14.5km/h 8% 0.00in /  0mm 83.0 W/m2
18:24 82.6 °F /  28.1 °C 15.3 °F /  -9.3 °C 29.80in /  1009hPa WSW 4.0mph /  6.4km/h 11.0mph /  17.7km/h 8% 0.00in /  0mm 63.0 W/m2
18:29 82.0 °F /  27.8 °C 17.6 °F /  -8 °C 29.80in /  1009hPa West 2.9mph /  4.7km/h 5.0mph /  8km/h 9% 0.00in /  0mm 47.0 W/m2
18:34 81.3 °F /  27.4 °C 17.1 °F /  -8.3 °C 29.81in /  1009.4hPa WSW 4.0mph /  6.4km/h 9.0mph /  14.5km/h 9% 0.00in /  0mm 26.0 W/m2
18:39 80.6 °F /  27 °C 19.0 °F /  -7.2 °C 29.81in /  1009.4hPa West 0.9mph /  1.4km/h 7.0mph /  11.3km/h 10% 0.00in /  0mm 16.0 W/m2
18:45 80.1 °F /  26.7 °C 18.5 °F /  -7.5 °C 29.81in /  1009.4hPa West 6.9mph /  11.1km/h 9.0mph /  14.5km/h 10% 0.00in /  0mm 11.0 W/m2
18:51 79.2 °F /  26.2 °C 20.1 °F /  -6.6 °C 29.81in /  1009.4hPa South 4.0mph /  6.4km/h 6.0mph /  9.7km/h 11% 0.00in /  0mm 5.0 W/m2
18:56 78.6 °F /  25.9 °C 19.8 °F /  -6.8 °C 29.82in /  1009.7hPa West 11.0mph /  17.7km/h 11.0mph /  17.7km/h 11% 0.00in /  0mm 0.0 W/m2
19:01 78.3 °F /  25.7 °C 19.4 °F /  -7 °C 29.82in /  1009.7hPa Calm   7.0mph /  11.3km/h 11% 0.00in /  0mm 0.0 W/m2
19:06 77.9 °F /  25.5 °C 19.2 °F /  -7.1 °C 29.82in /  1009.7hPa WSW 0.9mph /  1.4km/h 5.0mph /  8km/h 11% 0.00in /  0mm 0.0 W/m2
19:11 77.5 °F /  25.3 °C 18.9 °F /  -7.3 °C 29.82in /  1009.7hPa WSW 4.9mph /  7.9km/h 5.0mph /  8km/h 11% 0.00in /  0mm 0.0 W/m2
19:16 77.2 °F /  25.1 °C 18.7 °F /  -7.4 °C 29.83in /  1010hPa Calm   4.0mph /  6.4km/h 11% 0.00in /  0mm 0.0 W/m2
19:22 76.8 °F /  24.9 °C 20.3 °F /  -6.5 °C 29.83in /  1010hPa SSW 4.0mph /  6.4km/h 8.0mph /  12.9km/h 12% 0.00in /  0mm 0.0 W/m2
19:27 76.5 °F /  24.7 °C 20.1 °F /  -6.6 °C 29.83in /  1010hPa WSW 2.0mph /  3.2km/h 8.0mph /  12.9km/h 12% 0.00in /  0mm 0.0 W/m2
19:32 76.3 °F /  24.6 °C 19.9 °F /  -6.7 °C 29.83in /  1010hPa Calm   5.0mph /  8km/h 12% 0.00in /  0mm 0.0 W/m2
19:38 75.7 °F /  24.3 °C 19.6 °F /  -6.9 °C 29.84in /  1010.4hPa Calm   7.0mph /  11.3km/h 12% 0.00in /  0mm 0.0 W/m2
19:43 75.6 °F /  24.2 °C 19.4 °F /  -7 °C 29.84in /  1010.4hPa WSW 0.9mph /  1.4km/h 8.0mph /  12.9km/h 12% 0.00in /  0mm 0.0 W/m2
19:48 75.2 °F /  24 °C 19.0 °F /  -7.2 °C 29.84in /  1010.4hPa SW 2.0mph /  3.2km/h 4.0mph /  6.4km/h 12% 0.00in /  0mm 0.0 W/m2
19:53 74.8 °F /  23.8 °C 20.7 °F /  -6.3 °C 29.84in /  1010.4hPa Calm   3.0mph /  4.8km/h 13% 0.00in /  0mm 0.0 W/m2
19:58 74.7 °F /  23.7 °C 20.5 °F /  -6.4 °C 29.85in /  1010.7hPa Calm   1.0mph /  1.6km/h 13% 0.00in /  0mm 0.0 W/m2
20:01 74.5 °F /  23.6 °C 20.5 °F /  -6.4 °C 29.85in /  1010.7hPa Calm     13% 0.00in /  0mm 0.0 W/m2
20:06 74.1 °F /  23.4 °C 20.1 °F /  -6.6 °C 29.85in /  1010.7hPa Calm     13% 0.00in /  0mm 0.0 W/m2
20:11 73.9 °F /  23.3 °C 19.9 °F /  -6.7 °C 29.85in /  1010.7hPa Calm     13% 0.00in /  0mm 0.0 W/m2
20:16 73.6 °F /  23.1 °C 19.8 °F /  -6.8 °C 29.85in /  1010.7hPa Calm     13% 0.00in /  0mm 0.0 W/m2
20:21 73.2 °F /  22.9 °C 21.2 °F /  -6 °C 29.85in /  1010.7hPa Calm     14% 0.00in /  0mm 0.0 W/m2
20:26 73.0 °F /  22.8 °C 21.0 °F /  -6.1 °C 29.85in /  1010.7hPa Calm   3.0mph /  4.8km/h 14% 0.00in /  0mm 0.0 W/m2
20:32 72.7 °F /  22.6 °C 20.7 °F /  -6.3 °C 29.85in /  1010.7hPa SSW 0.9mph /  1.4km/h 1.0mph /  1.6km/h 14% 0.00in /  0mm 0.0 W/m2
20:37 72.5 °F /  22.5 °C 20.7 °F /  -6.3 °C 29.85in /  1010.7hPa Calm   7.0mph /  11.3km/h 14% 0.00in /  0mm 0.0 W/m2
20:42 72.3 °F /  22.4 °C 20.5 °F /  -6.4 °C 29.85in /  1010.7hPa SSW 2.9mph /  4.7km/h 5.0mph /  8km/h 14% 0.00in /  0mm 0.0 W/m2
20:47 72.1 °F /  22.3 °C 20.3 °F /  -6.5 °C 29.85in /  1010.7hPa WSW 0.9mph /  1.4km/h 3.0mph /  4.8km/h 14% 0.00in /  0mm 0.0 W/m2
20:52 72.1 °F /  22.3 °C 20.3 °F /  -6.5 °C 29.85in /  1010.7hPa Calm   5.0mph /  8km/h 14% 0.00in /  0mm 0.0 W/m2
20:57 72.0 °F /  22.2 °C 20.1 °F /  -6.6 °C 29.86in /  1011.1hPa Calm     14% 0.00in /  0mm 0.0 W/m2
21:02 72.0 °F /  22.2 °C 20.1 °F /  -6.6 °C 29.86in /  1011.1hPa Calm     14% 0.00in /  0mm 0.0 W/m2
21:08 71.6 °F /  22 °C 19.9 °F /  -6.7 °C 29.86in /  1011.1hPa Calm     14% 0.00in /  0mm 0.0 W/m2
21:14 71.2 °F /  21.8 °C 19.6 °F /  -6.9 °C 29.86in /  1011.1hPa Calm     14% 0.00in /  0mm 0.0 W/m2
21:19 71.1 °F /  21.7 °C 21.0 °F /  -6.1 °C 29.86in /  1011.1hPa Calm     15% 0.00in /  0mm 0.0 W/m2
21:24 70.5 °F /  21.4 °C 20.7 °F /  -6.3 °C 29.86in /  1011.1hPa Calm     15% 0.00in /  0mm 0.0 W/m2
21:29 70.3 °F /  21.3 °C 20.5 °F /  -6.4 °C 29.87in /  1011.4hPa Calm     15% 0.00in /  0mm 0.0 W/m2
21:34 70.2 °F /  21.2 °C 20.3 °F /  -6.5 °C 29.87in /  1011.4hPa Calm     15% 0.00in /  0mm 0.0 W/m2
21:39 69.8 °F /  21 °C 20.1 °F /  -6.6 °C 29.87in /  1011.4hPa Calm     15% 0.00in /  0mm 0.0 W/m2
21:44 69.4 °F /  20.8 °C 19.8 °F /  -6.8 °C 29.87in /  1011.4hPa Calm     15% 0.00in /  0mm 0.0 W/m2
21:49 69.1 °F /  20.6 °C 19.4 °F /  -7 °C 29.87in /  1011.4hPa Calm     15% 0.00in /  0mm 0.0 W/m2
21:55 68.5 °F /  20.3 °C 20.5 °F /  -6.4 °C 29.88in /  1011.7hPa Calm     16% 0.00in /  0mm 0.0 W/m2
22:00 68.4 °F /  20.2 °C 20.5 °F /  -6.4 °C 29.87in /  1011.4hPa Calm     16% 0.00in /  0mm 0.0 W/m2
22:06 68.0 °F /  20 °C 20.1 °F /  -6.6 °C 29.88in /  1011.7hPa Calm     16% 0.00in /  0mm 0.0 W/m2
22:11 67.6 °F /  19.8 °C 19.8 °F /  -6.8 °C 29.88in /  1011.7hPa Calm   1.0mph /  1.6km/h 16% 0.00in /  0mm 0.0 W/m2
22:16 67.5 °F /  19.7 °C 19.8 °F /  -6.8 °C 29.88in /  1011.7hPa Calm     16% 0.00in /  0mm 0.0 W/m2
22:21 67.3 °F /  19.6 °C 19.6 °F /  -6.9 °C 29.88in /  1011.7hPa Calm   1.0mph /  1.6km/h 16% 0.00in /  0mm 0.0 W/m2
22:26 67.3 °F /  19.6 °C 19.6 °F /  -6.9 °C 29.87in /  1011.4hPa Calm     16% 0.00in /  0mm 0.0 W/m2
22:31 67.3 °F /  19.6 °C 21.0 °F /  -6.1 °C 29.88in /  1011.7hPa Calm     17% 0.00in /  0mm 0.0 W/m2
22:36 67.1 °F /  19.5 °C 19.4 °F /  -7 °C 29.88in /  1011.7hPa Calm     16% 0.00in /  0mm 0.0 W/m2
22:41 67.1 °F /  19.5 °C 19.4 °F /  -7 °C 29.88in /  1011.7hPa Calm     16% 0.00in /  0mm 0.0 W/m2
22:46 67.3 °F /  19.6 °C 19.6 °F /  -6.9 °C 29.88in /  1011.7hPa Calm   1.0mph /  1.6km/h 16% 0.00in /  0mm 0.0 W/m2
22:51 67.3 °F /  19.6 °C 19.6 °F /  -6.9 °C 29.88in /  1011.7hPa Calm     16% 0.00in /  0mm 0.0 W/m2
22:57 67.3 °F /  19.6 °C 19.6 °F /  -6.9 °C 29.88in /  1011.7hPa Calm     16% 0.00in /  0mm 0.0 W/m2
23:02 67.3 °F /  19.6 °C 19.6 °F /  -6.9 °C 29.88in /  1011.7hPa Calm     16% 0.00in /  0mm 0.0 W/m2
23:07 67.3 °F /  19.6 °C 19.6 °F /  -6.9 °C 29.88in /  1011.7hPa Calm     16% 0.00in /  0mm 0.0 W/m2
23:12 67.1 °F /  19.5 °C 19.4 °F /  -7 °C 29.88in /  1011.7hPa Calm     16% 0.00in /  0mm 0.0 W/m2
23:17 66.9 °F /  19.4 °C 19.2 °F /  -7.1 °C 29.88in /  1011.7hPa Calm     16% 0.00in /  0mm 0.0 W/m2
23:22 66.9 °F /  19.4 °C 19.2 °F /  -7.1 °C 29.88in /  1011.7hPa Calm   4.0mph /  6.4km/h 16% 0.00in /  0mm 0.0 W/m2
23:27 66.9 °F /  19.4 °C 19.2 °F /  -7.1 °C 29.88in /  1011.7hPa Calm   1.0mph /  1.6km/h 16% 0.00in /  0mm 0.0 W/m2
23:33 66.9 °F /  19.4 °C 19.2 °F /  -7.1 °C 29.88in /  1011.7hPa Calm   1.0mph /  1.6km/h 16% 0.00in /  0mm 0.0 W/m2
23:38 67.1 °F /  19.5 °C 18.0 °F /  -7.8 °C 29.88in /  1011.7hPa Calm     15% 0.00in /  0mm 0.0 W/m2
23:43 67.1 °F /  19.5 °C 16.3 °F /  -8.7 °C 29.88in /  1011.7hPa Calm   1.0mph /  1.6km/h 14% 0.00in /  0mm 0.0 W/m2
23:48 67.3 °F /  19.6 °C 16.5 °F /  -8.6 °C 29.88in /  1011.7hPa Calm   6.0mph /  9.7km/h 14% 0.00in /  0mm 0.0 W/m2
23:54 67.6 °F /  19.8 °C 15.1 °F /  -9.4 °C 29.88in /  1011.7hPa Calm   1.0mph /  1.6km/h 13% 0.00in /  0mm 0.0 W/m2
23:59 67.8 °F /  19.9 °C 15.1 °F /  -9.4 °C 29.88in /  1011.7hPa Calm     13% 0.00in /  0mm 0.0 W/m2
Olympia, Windhoek, Namibia
Compliments of Weather Underground - 3.25 mb